Concho Valley, Arizona
Current Conditions -  °F | °C
As of 5:54 PM on Monday 24 Nov 2014 (Local Time) from KSJN Reporting Station
Clear Clear  
Wind Chill: 30°   Ceiling: Unl
Heat Index: 38°   Visibility: 10mi
Dew Point: -1°   Wind: 13mph
Humidity: 19%   Direction: 350°N
Pressure: 30.25"   Gusts: NA
Location:  34.4334°N, 109.652°W
Report Text: KSJN 250054Z AUTO 35011KT 10SM CLR 03/M18 A3025 RMK AO2 SLP255 T00331183
Loading
Personal Weather Stations






























Interactive Weather Map New forecast layout! Learn more

10-Day Weather Forecast

Advertisements
Track Severe Weather on mobile